Time;durP1;ratioP1;P1;durP2;ratioP2;P2;SDS_P1;SDS_P2;PMS_P1;PMS_P2;Temp;Humidity;BMP_temperature;BMP_pressure;BME280_temperature;BME280_humidity;BME280_pressure;Samples;Min_cycle;Max_cycle;Signal;HPM_P1;HPM_P2
2021/10/07 00:02:15;;;;;;;9.02;5.50;;;;;;;21.08;58.02;100865.94;5102163;28;20131;-65
2021/10/07 00:04:42;;;;;;;11.68;4.97;;;;;;;21.13;58.38;100877.09;5096205;28;20060;-65
2021/10/07 00:07:09;;;;;;;17.55;8.85;;;;;;;21.01;58.56;100867.31;5082869;28;20128;-64
2021/10/07 00:09:38;;;;;;;10.85;4.63;;;;;;;20.99;58.68;100881.03;5096444;28;20146;-66
2021/10/07 00:12:06;;;;;;;9.13;4.97;;;;;;;20.87;58.98;100866.72;5102626;28;20131;-65
2021/10/07 00:14:34;;;;;;;7.95;4.13;;;;;;;20.77;58.81;100856.59;5099892;28;20066;-68
2021/10/07 00:17:01;;;;;;;7.07;3.65;;;;;;;20.80;58.43;100872.94;5106232;28;20044;-68
2021/10/07 00:19:28;;;;;;;8.65;3.65;;;;;;;20.82;58.95;100886.81;5104317;28;20084;-68
2021/10/07 00:21:55;;;;;;;11.30;3.70;;;;;;;20.82;58.80;100883.97;5106294;28;20094;-71
2021/10/07 00:24:21;;;;;;;6.45;4.03;;;;;;;20.78;58.73;100874.44;5108351;28;20137;-71
2021/10/07 00:26:49;;;;;;;5.40;2.97;;;;;;;20.77;58.53;100878.47;5101929;28;20127;-67
2021/10/07 00:31:57;;;;;;;4.53;2.72;;;;;;;20.52;58.17;100821.50;5107205;28;20071;-67
2021/10/07 00:40:07;;;;;;;4.70;2.30;;;;;;;20.69;57.50;100851.81;5092489;28;20048;-65
2021/10/07 00:42:33;;;;;;;3.90;2.40;;;;;;;20.62;57.38;100839.34;5100120;28;20493;-66
2021/10/07 00:45:00;;;;;;;6.82;1.85;;;;;;;20.79;57.00;100861.94;5111559;28;20067;-68
2021/10/07 00:47:27;;;;;;;6.75;2.17;;;;;;;20.76;56.81;100852.09;5098033;28;20119;-68
2021/10/07 00:49:54;;;;;;;3.42;2.10;;;;;;;20.77;56.81;100858.59;5091236;28;20075;-67
2021/10/07 00:52:21;;;;;;;6.50;2.15;;;;;;;20.87;56.72;100868.75;5096653;28;20075;-66
2021/10/07 00:54:52;;;;;;;4.32;2.10;;;;;;;20.85;56.77;100852.03;5095168;28;20488;-66
2021/10/07 00:57:20;;;;;;;4.32;2.47;;;;;;;20.79;56.74;100859.94;5074749;28;20079;-66
2021/10/07 00:59:48;;;;;;;2.97;2.08;;;;;;;20.67;56.72;100845.63;5091498;28;20469;-67
2021/10/07 01:02:16;;;;;;;5.53;2.03;;;;;;;20.59;56.38;100833.16;5092499;28;20083;-66
2021/10/07 01:04:44;;;;;;;3.67;1.30;;;;;;;20.82;55.94;100864.94;5095885;28;20044;-66
2021/10/07 01:07:11;;;;;;;3.70;2.22;;;;;;;20.91;55.45;100862.03;5104243;28;20123;-66
2021/10/07 01:09:39;;;;;;;3.70;1.90;;;;;;;20.88;54.98;100848.50;5095517;28;20076;-66
2021/10/07 01:12:07;;;;;;;3.95;1.70;;;;;;;21.05;54.68;100864.59;5089690;28;20097;-65
2021/10/07 01:14:45;;;;;;;2.42;1.83;;;;;;;21.10;54.46;100855.91;5105745;28;20478;-65
2021/10/07 01:17:15;;;;;;;3.22;1.70;;;;;;;21.17;54.26;100869.56;5098669;28;20090;-65
2021/10/07 01:19:43;;;;;;;2.53;1.90;;;;;;;21.19;54.30;100861.50;5096464;28;20136;-64
2021/10/07 01:22:11;;;;;;;5.00;1.52;;;;;;;21.25;54.27;100871.50;5107492;28;20079;-64
2021/10/07 01:24:38;;;;;;;3.00;1.60;;;;;;;21.26;54.06;100864.63;5109717;27;20531;-63
2021/10/07 01:27:06;;;;;;;2.70;1.60;;;;;;;21.25;53.87;100865.81;5103883;28;20507;-64
2021/10/07 01:29:33;;;;;;;3.85;1.65;;;;;;;21.14;54.09;100859.72;5104224;28;20424;-64
2021/10/07 01:32:01;;;;;;;3.45;1.92;;;;;;;21.19;53.74;100861.50;5109170;28;20116;-64
2021/10/07 01:34:29;;;;;;;3.58;1.60;;;;;;;21.16;54.16;100853.69;5103801;28;20048;-63
2021/10/07 01:36:57;;;;;;;3.35;2.17;;;;;;;21.10;54.22;100855.06;5101805;28;20083;-63
2021/10/07 01:39:24;;;;;;;3.50;2.03;;;;;;;20.92;54.45;100841.00;5102364;28;20122;-63
2021/10/07 01:41:52;;;;;;;4.45;2.28;;;;;;;20.89;54.75;100855.88;5103130;28;20087;-63
2021/10/07 01:44:24;;;;;;;4.45;2.15;;;;;;;20.92;54.69;100851.50;5111888;28;20086;-62
2021/10/07 01:46:51;;;;;;;5.22;2.00;;;;;;;20.66;54.75;100826.13;5098908;28;20130;-63
2021/10/07 01:49:18;;;;;;;4.78;1.70;;;;;;;20.93;54.70;100870.22;5107928;27;20085;-66
2021/10/07 01:51:45;;;;;;;3.58;1.77;;;;;;;20.94;54.56;100869.84;5113150;27;20074;-64
2021/10/07 01:54:12;;;;;;;4.50;2.78;;;;;;;20.95;54.24;100860.16;5101569;28;20072;-65
2021/10/07 01:56:38;;;;;;;4.95;1.75;;;;;;;20.87;54.79;100852.53;5106593;28;20071;-66
2021/10/07 01:59:05;;;;;;;5.30;2.20;;;;;;;20.91;54.92;100867.69;5112852;28;20127;-66
2021/10/07 02:01:34;;;;;;;4.25;2.15;;;;;;;20.89;54.73;100863.53;5092185;28;20094;-67
2021/10/07 02:04:05;;;;;;;5.28;2.28;;;;;;;20.82;54.84;100852.75;5092470;28;20102;-66
2021/10/07 02:06:32;;;;;;;3.42;1.92;;;;;;;20.74;55.05;100847.94;5100470;28;20122;-66
2021/10/07 02:08:59;;;;;;;3.42;1.67;;;;;;;20.78;54.83;100851.75;5098631;28;20119;-66
2021/10/07 02:11:26;;;;;;;2.40;1.60;;;;;;;20.75;54.99;100858.09;5095524;28;20062;-66
2021/10/07 02:13:53;;;;;;;4.50;1.90;;;;;;;20.55;55.15;100831.34;5092816;28;20079;-65
2021/10/07 02:16:20;;;;;;;4.20;1.92;;;;;;;20.54;55.39;100829.66;5109195;27;20126;-65
2021/10/07 02:18:47;;;;;;;4.45;1.90;;;;;;;20.62;55.45;100842.16;5107331;28;20040;-65
2021/10/07 02:21:15;;;;;;;3.40;1.67;;;;;;;20.54;55.44;100849.53;5105452;28;20105;-65
2021/10/07 02:23:41;;;;;;;4.65;1.75;;;;;;;20.43;54.99;100837.69;5100362;28;20123;-65
2021/10/07 02:26:08;;;;;;;0.77;0.65;;;;;;;20.43;55.06;100840.53;5099982;28;20126;-64
2021/10/07 02:28:36;;;;;;;2.20;1.27;;;;;;;20.50;54.64;100840.88;5093879;28;20471;-64
2021/10/07 02:31:02;;;;;;;2.90;1.30;;;;;;;20.52;54.51;100846.22;5103197;28;20096;-64
2021/10/07 02:33:30;;;;;;;2.10;1.17;;;;;;;20.38;54.53;100806.72;5110698;28;20039;-61
2021/10/07 02:35:57;;;;;;;3.03;1.60;;;;;;;20.50;54.59;100832.34;5106760;28;20135;-61
2021/10/07 02:38:24;;;;;;;2.58;1.52;;;;;;;20.49;54.42;100839.19;5107844;28;20044;-61
2021/10/07 02:40:51;;;;;;;3.45;1.60;;;;;;;20.55;54.22;100831.34;5107465;28;20086;-62
2021/10/07 02:43:18;;;;;;;5.70;1.90;;;;;;;20.61;53.64;100837.66;5108443;28;20126;-62
2021/10/07 02:45:45;;;;;;;2.17;1.00;;;;;;;20.55;53.64;100820.00;5099776;28;20071;-62
2021/10/07 02:48:12;;;;;;;2.22;1.25;;;;;;;20.62;53.30;100834.50;5097602;28;20044;-65
2021/10/07 02:50:39;;;;;;;2.67;1.05;;;;;;;20.59;53.01;100812.47;5088051;28;20118;-63
2021/10/07 02:53:06;;;;;;;3.08;1.25;;;;;;;20.71;52.52;100821.06;5105214;28;20082;-62
2021/10/07 02:55:33;;;;;;;5.15;1.38;;;;;;;20.69;52.45;100828.28;5103814;27;20123;-63
2021/10/07 02:58:00;;;;;;;1.58;0.95;;;;;;;20.76;52.00;100828.56;5111520;28;20144;-62
2021/10/07 03:00:27;;;;;;;2.60;1.38;;;;;;;20.81;51.36;100822.69;5104788;28;20276;-64
2021/10/07 03:02:54;;;;;;;1.95;1.02;;;;;;;20.80;51.32;100815.34;5082710;28;20040;-62
2021/10/07 03:05:21;;;;;;;4.40;1.30;;;;;;;20.93;51.49;100821.94;5103903;27;20039;-62
2021/10/07 03:07:48;;;;;;;3.72;1.27;;;;;;;20.92;51.39;100825.94;5101685;28;20072;-63
2021/10/07 03:10:15;;;;;;;4.65;1.20;;;;;;;20.94;51.46;100826.44;5100435;28;20198;-64
2021/10/07 03:12:42;;;;;;;3.45;1.77;;;;;;;20.91;51.63;100830.78;5110598;28;20090;-64
2021/10/07 03:15:09;;;;;;;2.30;1.38;;;;;;;20.84;51.56;100819.16;5099928;28;20123;-64
2021/10/07 03:17:36;;;;;;;2.30;1.33;;;;;;;20.60;51.51;100774.41;5100462;28;20123;-62
2021/10/07 03:20:07;;;;;;;2.60;1.35;;;;;;;20.86;51.41;100818.81;5096548;28;20147;-62
2021/10/07 03:22:35;;;;;;;5.00;1.30;;;;;;;20.91;51.69;100827.97;5107136;28;20154;-62
2021/10/07 03:25:02;;;;;;;2.90;1.23;;;;;;;20.80;51.63;100818.19;5108286;28;20478;-62
2021/10/07 03:27:29;;;;;;;3.10;1.63;;;;;;;20.84;51.76;100833.34;5101171;28;20119;-62
2021/10/07 03:29:56;;;;;;;3.10;1.08;;;;;;;20.83;51.69;100832.53;5100491;28;20150;-62
2021/10/07 03:32:23;;;;;;;2.92;1.40;;;;;;;20.84;51.80;100830.50;5104353;28;20128;-62
2021/10/07 03:34:50;;;;;;;3.47;1.52;;;;;;;20.76;51.80;100817.22;5103062;28;20050;-63
2021/10/07 03:37:17;;;;;;;4.43;1.98;;;;;;;20.76;51.92;100820.06;5101657;28;20146;-61
2021/10/07 03:39:43;;;;;;;2.88;1.20;;;;;;;20.77;51.82;100821.72;5090983;28;20078;-63
2021/10/07 03:42:10;;;;;;;1.02;0.80;;;;;;;20.77;51.81;100821.72;5090784;28;20552;-63
2021/10/07 03:44:37;;;;;;;3.33;1.50;;;;;;;20.76;51.76;100820.06;5105632;28;20123;-64
2021/10/07 03:47:04;;;;;;;2.15;1.20;;;;;;;20.77;51.83;100816.84;5101930;28;20087;-64
2021/10/07 03:49:31;;;;;;;2.63;1.52;;;;;;;20.70;51.71;100815.75;5093238;28;20083;-64
2021/10/07 03:51:58;;;;;;;3.45;1.75;;;;;;;20.68;51.91;100816.06;5104721;28;20123;-64
2021/10/07 03:54:25;;;;;;;3.40;1.20;;;;;;;20.60;52.10;100819.78;5100919;28;20131;-66
2021/10/07 03:56:52;;;;;;;3.25;1.90;;;;;;;20.59;52.06;100813.28;5098533;28;20128;-67
2021/10/07 03:59:19;;;;;;;2.92;1.67;;;;;;;20.62;52.25;100822.31;5078941;28;20055;-68
2021/10/07 04:01:46;;;;;;;3.47;1.48;;;;;;;20.57;52.21;100824.16;5108140;28;20056;-64
2021/10/07 04:04:13;;;;;;;3.58;1.88;;;;;;;20.41;52.41;100805.16;5107405;28;20039;-64
2021/10/07 04:06:39;;;;;;;3.95;1.75;;;;;;;20.54;52.14;100824.81;5099835;28;20131;-62
2021/10/07 04:09:06;;;;;;;2.65;1.50;;;;;;;20.35;52.49;100813.06;5095150;28;20068;-61
2021/10/07 04:11:33;;;;;;;4.72;1.70;;;;;;;20.44;52.45;100827.19;5104891;28;20132;-61
2021/10/07 04:14:00;;;;;;;3.55;1.80;;;;;;;20.34;52.53;100814.22;5082942;28;20123;-61
2021/10/07 04:16:26;;;;;;;3.03;1.30;;;;;;;20.37;52.48;100824.88;5083941;28;20082;-60
2021/10/07 04:18:53;;;;;;;3.15;2.15;;;;;;;20.37;52.59;100830.56;5118777;28;20070;-61
2021/10/07 04:21:22;;;;;;;5.32;1.60;;;;;;;20.25;52.81;100817.09;5096954;28;20557;-61
2021/10/07 04:23:48;;;;;;;3.38;1.55;;;;;;;20.28;52.87;100826.94;5087890;28;20124;-62
2021/10/07 04:26:15;;;;;;;3.35;1.73;;;;;;;20.21;53.08;100823.78;5103890;28;20071;-61
2021/10/07 04:28:42;;;;;;;2.35;1.48;;;;;;;20.03;53.26;100806.00;5101636;28;20119;-61
2021/10/07 04:31:09;;;;;;;2.65;1.35;;;;;;;20.02;53.13;100819.34;5097486;28;20093;-62
2021/10/07 04:33:36;;;;;;;3.40;1.20;;;;;;;20.08;53.06;100828.50;5096058;28;20048;-62
2021/10/07 04:36:02;;;;;;;4.72;1.63;;;;;;;20.07;53.06;100818.34;5099879;28;20127;-61
2021/10/07 04:38:30;;;;;;;2.53;1.40;;;;;;;20.11;52.89;100828.66;5093612;28;20054;-62
2021/10/07 04:40:56;;;;;;;3.00;1.40;;;;;;;20.07;52.87;100826.84;5094268;28;20062;-61
2021/10/07 04:43:23;;;;;;;2.85;1.15;;;;;;;20.08;52.86;100835.00;5109949;28;20578;-65
2021/10/07 04:45:50;;;;;;;2.17;1.25;;;;;;;20.05;52.97;100844.19;5108989;28;20050;-65
2021/10/07 04:48:17;;;;;;;2.35;0.98;;;;;;;19.99;52.95;100825.69;5097739;28;20075;-64
2021/10/07 04:50:44;;;;;;;3.47;1.40;;;;;;;20.06;52.66;100837.31;5105146;28;20403;-63
2021/10/07 04:53:10;;;;;;;4.57;1.58;;;;;;;20.05;52.69;100832.00;5108982;28;20501;-63
2021/10/07 04:55:37;;;;;;;5.32;1.42;;;;;;;20.05;52.74;100840.50;5099465;28;20130;-62
2021/10/07 04:58:04;;;;;;;4.95;2.10;;;;;;;20.03;52.63;100838.03;5100669;28;20079;-63
2021/10/07 05:00:31;;;;;;;2.83;1.27;;;;;;;19.98;52.17;100823.19;5098126;28;20044;-64
2021/10/07 05:02:58;;;;;;;4.40;1.15;;;;;;;19.85;52.34;100808.03;5102620;28;20058;-63
2021/10/07 05:05:25;;;;;;;2.40;1.25;;;;;;;20.01;52.28;100828.19;5064288;27;20155;-62
2021/10/07 05:07:52;;;;;;;4.97;1.13;;;;;;;20.06;52.01;100837.31;5105972;27;20087;-64
2021/10/07 05:10:19;;;;;;;3.05;1.48;;;;;;;20.03;52.17;100832.34;5113237;27;20076;-66
2021/10/07 05:12:45;;;;;;;3.25;2.00;;;;;;;20.02;52.24;100830.69;5100802;28;20407;-64
2021/10/07 05:15:12;;;;;;;2.60;1.27;;;;;;;19.96;52.30;100825.53;5102184;28;20039;-64
2021/10/07 05:17:39;;;;;;;3.28;1.20;;;;;;;19.91;52.40;100829.38;5096677;28;20127;-62
2021/10/07 05:20:07;;;;;;;2.47;1.35;;;;;;;19.84;52.35;100821.38;5107975;28;20043;-60
2021/10/07 05:22:35;;;;;;;3.40;1.10;;;;;;;19.87;52.35;100834.88;5108950;28;20135;-59
2021/10/07 05:25:02;;;;;;;4.60;1.45;;;;;;;19.78;52.32;100813.41;5090869;28;20131;-64
2021/10/07 05:27:29;;;;;;;5.65;1.13;;;;;;;19.61;52.30;100802.91;5114207;27;20127;-60
2021/10/07 05:29:56;;;;;;;2.42;1.27;;;;;;;19.71;52.43;100818.75;5109866;28;20079;-59
2021/10/07 05:32:23;;;;;;;3.58;1.38;;;;;;;19.70;52.69;100808.59;5098968;28;20078;-62
2021/10/07 05:34:50;;;;;;;2.22;1.20;;;;;;;19.72;52.55;100831.75;5102187;28;20142;-61
2021/10/07 05:37:18;;;;;;;2.15;1.40;;;;;;;19.65;52.61;100827.41;5103684;28;20040;-58
2021/10/07 05:39:45;;;;;;;3.05;1.38;;;;;;;19.60;52.53;100821.91;5098547;28;20127;-58
2021/10/07 05:42:12;;;;;;;2.35;1.35;;;;;;;19.59;52.42;100817.41;5096293;28;20510;-64
2021/10/07 05:44:39;;;;;;;4.70;1.65;;;;;;;19.63;52.46;100811.94;5103986;28;20036;-74
2021/10/07 05:47:06;;;;;;;3.35;1.38;;;;;;;19.48;52.18;100775.59;5104525;28;20108;-77
2021/10/07 05:49:32;;;;;;;3.15;1.30;;;;;;;19.48;51.90;100775.59;5107248;28;20119;-75
2021/10/07 05:52:00;;;;;;;2.20;1.27;;;;;;;19.58;51.97;100797.91;5109207;28;20127;-76
2021/10/07 05:54:26;;;;;;;3.85;1.23;;;;;;;19.59;51.66;100806.06;5103823;28;20493;-69
2021/10/07 05:56:53;;;;;;;1.92;1.17;;;;;;;19.56;51.18;100812.41;5104201;28;20105;-63
2021/10/07 05:59:20;;;;;;;3.17;1.00;;;;;;;19.55;51.43;100804.22;5109280;28;20491;-69
2021/10/07 06:01:47;;;;;;;3.88;1.40;;;;;;;19.29;51.48;100773.13;5099504;28;20369;-69
2021/10/07 06:04:14;;;;;;;3.85;1.27;;;;;;;19.38;51.24;100810.75;5103723;28;20456;-67
2021/10/07 06:06:41;;;;;;;2.03;1.08;;;;;;;19.31;51.11;100816.06;5109651;28;20071;-74
2021/10/07 06:09:07;;;;;;;2.65;1.20;;;;;;;19.15;51.45;100802.44;5098217;27;20075;-70
2021/10/07 06:11:35;;;;;;;2.08;1.30;;;;;;;19.13;51.68;100810.41;5087745;27;20125;-69
2021/10/07 06:14:03;;;;;;;2.15;1.02;;;;;;;18.96;51.49;100784.94;5089145;28;20079;-68
2021/10/07 06:16:38;;;;;;;1.92;0.80;;;;;;;19.05;51.71;100816.91;5101928;27;20127;-68
2021/10/07 06:19:09;;;;;;;1.85;0.90;;;;;;;19.03;51.69;100816.41;5102281;27;20407;-69
2021/10/07 06:21:37;;;;;;;5.18;1.60;;;;;;;18.98;51.36;100807.25;5096205;28;20132;-68
2021/10/07 06:24:05;;;;;;;1.45;0.90;;;;;;;19.07;51.10;100819.41;5092599;28;20119;-69
2021/10/07 06:26:36;;;;;;;1.77;1.48;;;;;;;19.08;50.97;100819.06;5112500;28;20240;-68
2021/10/07 06:29:03;;;;;;;0.80;0.50;;;;;;;19.11;50.42;100812.75;5097505;28;20071;-67
2021/10/07 06:31:30;;;;;;;1.20;0.70;;;;;;;19.03;50.13;100801.41;5104284;27;20140;-70
2021/10/07 06:33:57;;;;;;;0.73;0.60;;;;;;;19.10;50.50;100810.25;5111093;28;20158;-67
2021/10/07 06:36:24;;;;;;;3.22;2.05;;;;;;;19.15;50.13;100810.09;5093574;28;20126;-69
2021/10/07 06:38:51;;;;;;;1.90;1.20;;;;;;;19.15;50.36;100819.41;5107434;28;20535;-65
2021/10/07 06:41:18;;;;;;;1.42;0.90;;;;;;;19.06;50.18;100810.06;5098962;28;20466;-68
2021/10/07 06:43:45;;;;;;;6.68;1.33;;;;;;;19.14;50.77;100823.41;5086734;28;20598;-67
2021/10/07 06:46:11;;;;;;;1.58;1.00;;;;;;;19.10;50.04;100813.91;5098692;28;20044;-68
2021/10/07 06:48:38;;;;;;;3.85;1.73;;;;;;;19.15;50.00;100808.09;5105007;28;20040;-65
2021/10/07 06:51:09;;;;;;;6.50;2.03;;;;;;;19.28;49.92;100822.41;5098954;28;20102;-64
2021/10/07 06:53:38;;;;;;;1.85;0.82;;;;;;;19.14;50.09;100806.44;5099665;28;20051;-65
2021/10/07 06:56:06;;;;;;;1.60;1.17;;;;;;;19.18;50.00;100829.25;5093629;27;20131;-65
2021/10/07 06:58:33;;;;;;;3.83;1.02;;;;;;;19.21;50.12;100828.56;5091974;28;20123;-65
2021/10/07 07:01:00;;;;;;;2.85;1.38;;;;;;;19.23;49.87;100831.91;5092908;28;20127;-63
2021/10/07 07:03:27;;;;;;;2.78;1.60;;;;;;;19.02;49.79;100775.13;5105234;28;20078;-65
2021/10/07 07:05:54;;;;;;;1.58;1.02;;;;;;;19.36;49.68;100835.75;5107755;28;20051;-64
2021/10/07 07:08:21;;;;;;;1.98;0.93;;;;;;;19.23;49.61;100797.09;5100120;28;20086;-64
2021/10/07 07:10:48;;;;;;;2.67;1.30;;;;;;;19.45;49.63;100821.56;5106606;28;20093;-64
2021/10/07 07:13:16;;;;;;;4.47;1.65;;;;;;;19.59;49.20;100834.41;5108031;28;20135;-64
2021/10/07 07:15:43;;;;;;;4.40;1.75;;;;;;;19.69;48.83;100821.06;5098808;28;20046;-65
2021/10/07 07:18:10;;;;;;;3.85;1.42;;;;;;;19.96;48.60;100851.03;5109802;28;20062;-64
2021/10/07 07:20:37;;;;;;;3.55;1.70;;;;;;;20.17;48.17;100846.31;5111875;28;20044;-64
2021/10/07 07:23:09;;;;;;;3.00;1.52;;;;;;;20.34;47.38;100840.59;5102221;28;20481;-64
2021/10/07 07:25:36;;;;;;;5.30;1.27;;;;;;;20.47;47.38;100847.19;5108881;28;20047;-64
2021/10/07 07:28:03;;;;;;;2.75;1.20;;;;;;;20.67;46.89;100854.13;5102283;28;20130;-65
2021/10/07 07:30:30;;;;;;;1.70;0.95;;;;;;;20.74;46.85;100840.25;5107392;28;20122;-64
2021/10/07 07:32:57;;;;;;;3.80;1.40;;;;;;;20.96;46.54;100858.19;5108799;28;20130;-64
2021/10/07 07:35:25;;;;;;;1.98;1.52;;;;;;;21.06;46.09;100850.09;5101321;28;20040;-64
2021/10/07 07:37:52;;;;;;;7.90;1.33;;;;;;;21.21;45.70;100856.31;5095532;27;20465;-63
2021/10/07 07:40:19;;;;;;;2.97;1.25;;;;;;;21.40;45.35;100858.72;5104828;28;20119;-63
2021/10/07 07:42:46;;;;;;;2.08;1.15;;;;;;;21.49;44.85;100854.63;5093318;28;20420;-64
2021/10/07 07:45:13;;;;;;;5.53;1.50;;;;;;;21.59;44.50;100861.06;5108575;28;20126;-64
2021/10/07 07:47:54;;;;;;;3.50;1.33;;;;;;;21.68;44.09;100856.16;5099219;28;20465;-64
2021/10/07 07:50:23;;;;;;;4.93;1.60;;;;;;;21.82;43.72;100856.66;5103237;28;20051;-65
2021/10/07 07:52:51;;;;;;;3.95;1.58;;;;;;;22.08;43.42;100864.09;5098323;28;20139;-65
2021/10/07 07:55:20;;;;;;;5.35;1.60;;;;;;;22.15;43.21;100853.00;5115118;27;20047;-65
2021/10/07 07:57:48;;;;;;;5.18;2.63;;;;;;;22.21;42.86;100857.28;5114603;27;20086;-65
2021/10/07 08:00:15;;;;;;;5.55;1.90;;;;;;;22.44;42.88;100852.00;5094440;28;20240;-65
2021/10/07 08:02:42;;;;;;;4.10;2.03;;;;;;;22.70;42.51;100863.88;5105195;28;20091;-64
2021/10/07 08:05:10;;;;;;;6.00;1.80;;;;;;;22.93;42.04;100861.41;5096430;28;20051;-66
2021/10/07 08:07:37;;;;;;;5.22;1.80;;;;;;;23.29;41.09;100865.41;5099479;28;20082;-65
2021/10/07 08:10:05;;;;;;;5.22;2.55;;;;;;;23.71;40.45;100867.91;5099022;28;20048;-62
2021/10/07 08:12:33;;;;;;;5.63;2.60;;;;;;;23.98;39.55;100869.09;5096985;28;20043;-65
2021/10/07 08:15:03;;;;;;;5.60;2.22;;;;;;;24.32;38.90;100853.34;5116719;28;20097;-65
2021/10/07 08:17:30;;;;;;;3.75;1.60;;;;;;;24.70;38.75;100863.31;5115994;28;20130;-63
2021/10/07 08:19:57;;;;;;;4.07;1.90;;;;;;;24.99;37.72;100864.00;5109618;28;20052;-64
2021/10/07 08:22:25;;;;;;;4.85;2.10;;;;;;;25.35;37.87;100864.91;5100265;27;20044;-64
2021/10/07 08:24:52;;;;;;;3.28;1.55;;;;;;;25.32;37.12;100805.59;5080042;28;20051;-64
2021/10/07 08:27:19;;;;;;;8.73;1.67;;;;;;;25.54;36.56;100827.75;5075382;28;20052;-65
2021/10/07 08:29:46;;;;;;;5.50;2.03;;;;;;;26.16;36.57;100848.66;5078912;28;20560;-65
2021/10/07 08:32:13;;;;;;;4.65;1.92;;;;;;;26.67;36.15;100868.41;5088942;28;20044;-63
2021/10/07 08:34:40;;;;;;;4.55;1.73;;;;;;;26.80;35.23;100836.69;5076592;28;20503;-64
2021/10/07 08:37:07;;;;;;;3.70;1.83;;;;;;;27.03;35.12;100869.00;5087161;28;20123;-64
2021/10/07 08:39:34;;;;;;;7.22;1.83;;;;;;;27.36;34.64;100864.63;5071624;28;20493;-64
2021/10/07 08:42:01;;;;;;;7.90;2.45;;;;;;;27.48;34.81;100867.22;5078267;28;20044;-63
2021/10/07 08:44:29;;;;;;;9.50;2.22;;;;;;;27.85;34.27;100861.59;5091093;28;20480;-63
2021/10/07 08:46:57;;;;;;;7.13;2.00;;;;;;;28.24;33.94;100838.25;5080714;28;20090;-64
2021/10/07 08:49:27;;;;;;;4.05;2.20;;;;;;;28.68;33.46;100859.63;5083892;28;20052;-64
2021/10/07 08:51:55;;;;;;;7.20;2.30;;;;;;;28.72;33.63;100860.50;5085347;28;20132;-63
2021/10/07 08:54:21;;;;;;;5.60;2.28;;;;;;;28.79;33.44;100872.06;5087602;28;20483;-64
2021/10/07 08:56:49;;;;;;;4.75;2.22;;;;;;;28.88;33.09;100869.63;5080914;28;20094;-62
2021/10/07 08:59:18;;;;;;;7.82;2.10;;;;;;;29.05;32.55;100866.09;5088285;28;20445;-63
2021/10/07 09:01:48;;;;;;;8.75;2.83;;;;;;;29.24;31.87;100856.38;5085606;28;20318;-65
2021/10/07 09:04:16;;;;;;;6.20;2.55;;;;;;;29.09;32.26;100845.19;5088493;28;20044;-62
2021/10/07 09:06:48;;;;;;;3.95;2.30;;;;;;;28.99;32.02;100847.59;5077978;28;20040;-63
2021/10/07 09:09:21;;;;;;;5.13;2.67;;;;;;;29.05;31.76;100865.28;5089466;28;20048;-63
2021/10/07 09:11:51;;;;;;;5.32;2.20;;;;;;;29.15;31.21;100855.09;5078166;28;20087;-63
2021/10/07 09:14:24;;;;;;;3.67;1.80;;;;;;;29.38;31.18;100858.53;5075601;28;20128;-63
2021/10/07 09:16:53;;;;;;;5.82;1.92;;;;;;;29.66;31.04;100862.81;5084701;28;20143;-63
2021/10/07 09:19:25;;;;;;;;;;;;;;;29.40;31.92;100853.22;5081155;28;20044;-62
2021/10/07 09:21:55;;;;;;;4.10;2.08;;;;;;;29.59;31.38;100868.50;5079026;28;20002;-63
2021/10/07 09:24:40;;;;;;;11.88;2.00;;;;;;;29.73;30.90;100862.84;5107104;28;20094;-63
2021/10/07 09:27:18;;;;;;;3.15;1.67;;;;;;;30.08;29.75;100867.91;5106992;27;20127;-63
2021/10/07 09:29:57;;;;;;;5.18;1.60;;;;;;;30.03;28.95;100865.44;5115210;27;20048;-62
2021/10/07 09:32:26;;;;;;;5.07;2.20;;;;;;;30.39;29.06;100859.75;5097222;28;21829;-65
2021/10/07 09:34:59;;;;;;;5.45;2.15;;;;;;;30.91;28.64;100861.06;5106272;28;20150;-63
2021/10/07 09:37:34;;;;;;;6.57;1.67;;;;;;;30.88;27.21;100864.78;5107945;28;20127;-65
2021/10/07 09:40:13;;;;;;;3.90;1.65;;;;;;;30.72;26.62;100884.50;5097497;28;20082;-64
2021/10/07 09:42:43;;;;;;;2.60;1.50;;;;;;;30.30;27.40;100863.06;5101586;28;20075;-64
2021/10/07 09:45:21;;;;;;;4.63;2.00;;;;;;;30.34;27.25;100872.53;5094707;28;20131;-65
2021/10/07 09:47:50;;;;;;;3.97;2.08;;;;;;;30.29;27.58;100881.59;5099227;28;20089;-64
2021/10/07 09:50:20;;;;;;;3.75;1.75;;;;;;;30.49;27.33;100878.31;5103163;28;20082;-64
2021/10/07 09:52:50;;;;;;;2.50;1.75;;;;;;;30.40;26.89;100873.78;5101057;28;20166;-59
2021/10/07 09:55:23;;;;;;;3.60;2.15;;;;;;;30.69;27.57;100863.09;5106553;28;20136;-61
2021/10/07 09:57:56;;;;;;;4.40;1.98;;;;;;;31.13;27.34;100858.16;5094391;28;20404;-61
2021/10/07 10:00:28;;;;;;;4.75;2.38;;;;;;;31.57;27.26;100859.72;5099397;28;20067;-61
2021/10/07 10:02:57;;;;;;;2.63;1.80;;;;;;;31.57;26.46;100865.50;5102803;28;20047;-62
2021/10/07 10:05:26;;;;;;;4.07;2.15;;;;;;;31.56;26.40;100863.88;5111059;27;20062;-62
2021/10/07 10:07:54;;;;;;;2.58;1.58;;;;;;;31.81;26.05;100873.25;5111177;27;20108;-62
2021/10/07 10:10:21;;;;;;;8.27;2.20;;;;;;;31.62;26.68;100856.41;5109879;27;20338;-62
2021/10/07 10:12:49;;;;;;;3.85;2.00;;;;;;;31.83;25.85;100873.66;5109408;28;20060;-61
2021/10/07 10:15:17;;;;;;;4.15;2.72;;;;;;;31.98;25.87;100862.06;5106150;28;20072;-62
2021/10/07 10:17:44;;;;;;;4.97;1.97;;;;;;;32.14;25.95;100858.66;5105374;28;20131;-61
2021/10/07 10:20:25;;;;;;;5.18;2.05;;;;;;;32.48;26.35;100856.00;5100292;28;20071;-62
2021/10/07 10:23:13;;;;;;;5.38;2.03;;;;;;;32.59;25.95;100850.16;5101094;28;20071;-61
2021/10/07 10:26:06;;;;;;;4.63;2.30;;;;;;;32.78;25.69;100859.06;5105718;27;20174;-61
2021/10/07 10:28:42;;;;;;;5.55;2.30;;;;;;;33.18;26.02;100859.56;5094475;28;20044;-63
2021/10/07 10:31:12;;;;;;;2.90;1.73;;;;;;;33.43;25.27;100855.56;5103192;27;20502;-59
2021/10/07 10:33:45;;;;;;;3.53;1.90;;;;;;;33.54;24.56;100846.78;5113016;27;20089;-57
2021/10/07 10:36:27;;;;;;;6.90;1.80;;;;;;;33.65;25.26;100862.78;5108212;28;20105;-59
2021/10/07 10:39:05;;;;;;;6.60;1.95;;;;;;;33.85;25.05;100850.56;5082988;28;20127;-61
2021/10/07 10:41:59;;;;;;;3.33;1.58;;;;;;;34.02;24.99;100860.25;5098075;28;20042;-61
2021/10/07 10:44:36;;;;;;;3.80;1.83;;;;;;;34.30;24.49;100864.84;5096269;28;20048;-61
2021/10/07 10:47:05;;;;;;;6.88;2.13;;;;;;;34.33;23.78;100858.19;5105421;27;20127;-61
2021/10/07 10:49:53;;;;;;;3.00;2.05;;;;;;;33.70;24.41;100865.19;5101317;28;20050;-61
2021/10/07 10:52:21;;;;;;;4.80;1.80;;;;;;;33.76;24.26;100858.94;5092662;28;20123;-61
2021/10/07 10:54:58;;;;;;;4.68;1.95;;;;;;;33.76;25.36;100853.97;5090900;28;20550;-61
2021/10/07 10:57:33;;;;;;;7.82;2.20;;;;;;;33.59;25.26;100861.63;5104875;28;20130;-61
2021/10/07 11:00:21;;;;;;;3.70;2.03;;;;;;;33.58;25.30;100842.59;5108080;28;20509;-61
2021/10/07 11:02:51;;;;;;;;;;;;;;;33.66;26.42;100844.16;5098780;28;20046;-62
2021/10/07 11:05:24;;;;;;;5.57;2.58;;;;;;;34.79;23.92;100853.72;5108032;28;19935;-61
2021/10/07 11:08:13;;;;;;;5.53;2.30;;;;;;;35.96;23.39;100836.13;5102118;28;20135;-61
2021/10/07 11:11:02;;;;;;;3.90;2.53;;;;;;;35.45;21.47;100841.31;5102320;28;20042;-60
2021/10/07 11:13:33;;;;;;;5.53;2.45;;;;;;;34.89;22.07;100832.41;5092472;28;20048;-60
2021/10/07 11:16:04;;;;;;;3.17;1.92;;;;;;;34.56;22.03;100820.53;5098345;28;20047;-59
2021/10/07 11:18:35;;;;;;;4.10;1.83;;;;;;;34.47;23.53;100828.97;5099473;28;20427;-60
2021/10/07 11:21:11;;;;;;;3.60;1.98;;;;;;;33.72;21.10;100835.81;5116858;27;20054;-59
2021/10/07 11:23:38;;;;;;;5.93;2.28;;;;;;;33.59;22.29;100826.88;5107472;27;20052;-59
2021/10/07 11:26:06;;;;;;;4.47;2.58;;;;;;;33.76;21.86;100819.19;5102138;28;20044;-61
2021/10/07 11:28:44;;;;;;;5.03;2.50;;;;;;;34.26;22.37;100815.63;5102739;28;20036;-61
2021/10/07 11:31:17;;;;;;;4.82;2.25;;;;;;;34.76;22.06;100777.09;5096369;28;20074;-60
2021/10/07 11:33:49;;;;;;;6.90;2.47;;;;;;;35.70;20.70;100811.78;5089694;28;20050;-60
2021/10/07 11:36:19;;;;;;;4.68;2.40;;;;;;;35.83;20.85;100804.03;5109976;27;20044;-61
2021/10/07 11:38:48;;;;;;;5.70;2.50;;;;;;;36.42;20.56;100811.00;5100120;28;20314;-60
2021/10/07 11:41:17;;;;;;;6.80;2.75;;;;;;;36.19;19.52;100803.22;5076121;28;20043;-60
2021/10/07 11:43:45;;;;;;;2.63;1.88;;;;;;;36.18;19.37;100806.59;5092445;28;22085;-60